Terminal Aerodrome Forecast
Issued by NWS Charleston, WV

Current Version | Previous Version | Text Only | Print | Product List | Glossary Off
Versions: 1 2 3 4 5 6 7 8 9 10 11 12 13 14 15 16 17 18 19 20 21 22 23 24 25 26

558
FTUS41 KRLX 280248 AAB
TAFCRW
TAF AMD
KCRW 280248Z 2803/2824 20004KT P6SM FEW060 SCT090 BKN110
     FM280900 00000KT 4SM BR SCT250
     FM281100 VRB02KT 2SM BR SCT001
     FM281300 VRB02KT P6SM FEW070
     FM282300 VRB02KT 6SM -SHRA VCTS SCT040CB=

USA.gov is the U.S. government's official web portal to all federal, state and local government web resources and services.